Time;durP1;ratioP1;P1;durP2;ratioP2;P2;SDS_P1;SDS_P2;PMS_P1;PMS_P2;Temp;Humidity;BMP_temperature;BMP_pressure;BME280_temperature;BME280_humidity;BME280_pressure;Samples;Min_cycle;Max_cycle;Signal;HPM_P1;HPM_P2
2021/03/22 00:00:37;;;;;;;30.88;15.93;;;;;;;0.89;62.08;98587.71;1709916;84;21317;-68
2021/03/22 00:03:07;;;;;;;28.60;16.15;;;;;;;0.91;62.08;98586.72;1709793;84;21628;-68
2021/03/22 00:05:36;;;;;;;27.42;15.35;;;;;;;0.91;62.13;98580.65;1710016;84;21627;-68
2021/03/22 00:08:04;;;;;;;29.15;16.25;;;;;;;0.90;62.21;98569.88;1709694;84;21374;-68
2021/03/22 00:10:33;;;;;;;28.65;15.05;;;;;;;0.94;62.12;98568.33;1709685;84;21293;-68
2021/03/22 00:13:00;;;;;;;32.95;17.10;;;;;;;0.90;62.16;98560.30;1709952;84;21642;-68
2021/03/22 00:15:32;;;;;;;29.23;16.00;;;;;;;0.95;62.06;98556.17;1709670;83;21160;-68
2021/03/22 00:17:59;;;;;;;28.73;16.32;;;;;;;0.92;62.13;98551.09;1709779;83;21337;-68
2021/03/22 00:20:29;;;;;;;28.77;15.58;;;;;;;0.93;62.14;98551.05;1709674;83;21180;-68
2021/03/22 00:22:56;;;;;;;29.37;16.02;;;;;;;0.89;62.16;98547.36;1709577;84;22201;-68
2021/03/22 00:25:25;;;;;;;28.70;14.73;;;;;;;0.89;62.19;98548.66;1709697;84;21176;-68
2021/03/22 00:27:53;;;;;;;29.45;15.83;;;;;;;0.86;62.23;98539.69;1711435;83;21656;-68
2021/03/22 00:30:26;;;;;;;27.37;15.15;;;;;;;0.86;62.20;98541.85;1723296;83;21309;-68
2021/03/22 00:32:53;;;;;;;28.42;14.85;;;;;;;0.83;62.25;98531.58;1723181;83;21159;-68
2021/03/22 00:35:20;;;;;;;29.95;15.98;;;;;;;0.83;62.26;98532.05;1723394;83;21139;-68
2021/03/22 00:37:48;;;;;;;26.37;15.90;;;;;;;0.85;62.23;98546.67;1723240;83;21289;-68
2021/03/22 00:40:17;;;;;;;32.95;16.25;;;;;;;0.81;62.28;98536.03;1723311;83;21127;-68
2021/03/22 00:42:44;;;;;;;32.10;15.38;;;;;;;0.85;62.19;98535.42;1723251;83;21151;-68
2021/03/22 00:45:14;;;;;;;28.73;15.88;;;;;;;0.79;62.30;98537.41;1723263;83;21190;-68
2021/03/22 00:47:42;;;;;;;30.77;15.45;;;;;;;0.80;62.25;98529.14;1723642;83;21584;-68
2021/03/22 00:50:12;;;;;;;30.65;16.85;;;;;;;0.75;62.33;98535.86;1723584;83;21555;-68
2021/03/22 00:52:40;;;;;;;30.00;16.10;;;;;;;0.74;62.39;98526.83;1723349;83;21171;-68
2021/03/22 00:55:10;;;;;;;30.17;16.35;;;;;;;0.66;62.51;98529.81;1723639;83;21162;-68
2021/03/22 00:57:37;;;;;;;31.62;16.25;;;;;;;0.63;62.59;98532.59;1723323;83;21203;-68
2021/03/22 01:00:08;;;;;;;28.73;16.37;;;;;;;0.55;62.68;98523.86;1723541;83;21312;-68
2021/03/22 01:02:36;;;;;;;33.00;17.20;;;;;;;0.54;62.78;98523.47;1723447;83;21281;-68
2021/03/22 01:05:06;;;;;;;31.20;16.73;;;;;;;0.52;62.83;98524.45;1723314;83;21194;-68
2021/03/22 01:07:33;;;;;;;31.35;17.07;;;;;;;0.48;62.97;98532.39;1723373;83;21203;-68
2021/03/22 01:10:00;;;;;;;29.32;15.85;;;;;;;0.52;62.98;98530.96;1723519;83;21560;-68
2021/03/22 01:12:27;;;;;;;30.08;16.17;;;;;;;0.45;63.10;98520.85;1723491;83;21198;-68
2021/03/22 01:14:55;;;;;;;25.15;14.70;;;;;;;0.52;63.05;98530.96;1723527;83;21714;-68
2021/03/22 01:17:22;;;;;;;27.00;15.83;;;;;;;0.49;63.06;98528.88;1723584;83;21119;-68
2021/03/22 01:19:50;;;;;;;26.40;14.65;;;;;;;0.55;63.06;98523.86;1723316;83;21197;-67
2021/03/22 01:22:17;;;;;;;28.73;16.10;;;;;;;0.52;63.16;98533.09;1723671;83;21210;-67
2021/03/22 01:24:44;;;;;;;28.85;15.78;;;;;;;0.56;63.09;98537.22;1723461;83;21199;-67
2021/03/22 01:27:12;;;;;;;28.55;15.60;;;;;;;0.55;63.14;98542.06;1723336;83;21171;-68
2021/03/22 01:29:41;;;;;;;30.08;15.93;;;;;;;0.60;63.11;98532.72;1723207;83;21201;-67
2021/03/22 01:32:10;;;;;;;30.82;16.32;;;;;;;0.62;63.08;98525.69;1723419;83;21198;-68
2021/03/22 01:34:38;;;;;;;31.55;16.87;;;;;;;0.65;63.08;98533.33;1723296;83;21202;-68
2021/03/22 01:37:06;;;;;;;28.90;14.73;;;;;;;0.67;63.06;98526.30;1723667;83;21548;-68
2021/03/22 01:39:37;;;;;;;27.32;14.63;;;;;;;0.69;63.04;98518.41;1723655;83;21183;-68
2021/03/22 01:42:28;;;;;;;23.57;14.40;;;;;;;0.72;62.91;98516.98;1723687;83;21484;-67
2021/03/22 01:45:00;;;;;;;26.17;14.50;;;;;;;0.70;62.97;98523.53;1723240;83;21224;-68
2021/03/22 01:47:30;;;;;;;28.50;15.50;;;;;;;0.75;62.94;98518.94;1697198;83;21713;-67
2021/03/22 01:50:25;;;;;;;25.20;14.75;;;;;;;0.70;63.04;98523.53;1723316;83;21175;-67
2021/03/22 01:52:53;;;;;;;26.80;14.45;;;;;;;0.76;62.94;98516.73;1723179;83;21187;-65
2021/03/22 01:55:22;;;;;;;26.35;14.80;;;;;;;0.70;63.04;98511.83;1723497;83;21725;-65
2021/03/22 01:57:49;;;;;;;25.20;13.85;;;;;;;0.75;63.03;98512.44;1723542;83;21316;-65
2021/03/22 02:00:32;;;;;;;25.23;15.10;;;;;;;0.71;63.10;98519.19;1723380;83;21198;-67
2021/03/22 02:03:13;;;;;;;26.27;15.40;;;;;;;0.73;63.12;98517.34;1723884;83;21107;-68
2021/03/22 02:05:47;;;;;;;25.77;15.38;;;;;;;0.69;63.22;98517.98;1723550;83;21575;-68
2021/03/22 02:08:23;;;;;;;27.17;14.87;;;;;;;0.71;63.18;98511.39;1723589;83;21627;-67
2021/03/22 02:10:51;;;;;;;27.30;15.83;;;;;;;0.67;63.36;98516.37;1723296;83;21214;-67
2021/03/22 02:13:23;;;;;;;27.07;14.87;;;;;;;0.70;63.31;98515.73;1723285;83;21143;-67
2021/03/22 02:16:17;;;;;;;25.23;15.43;;;;;;;0.68;63.40;98511.52;1722077;83;21182;-67
2021/03/22 02:19:19;;;;;;;28.07;14.80;;;;;;;0.72;63.39;98500.89;1723298;83;21171;-66
2021/03/22 02:22:28;;;;;;;28.55;15.18;;;;;;;0.69;63.51;98504.97;1723646;83;21195;-67
2021/03/22 02:25:19;;;;;;;25.20;14.33;;;;;;;0.71;63.51;98505.71;1723739;83;21170;-66
2021/03/22 02:27:54;;;;;;;27.10;15.08;;;;;;;0.68;63.54;98505.88;1723567;83;21301;-66
2021/03/22 02:30:47;;;;;;;26.75;14.83;;;;;;;0.71;63.46;98501.80;1711799;83;21155;-66
2021/03/22 02:33:49;;;;;;;27.10;15.78;;;;;;;0.70;63.63;98510.52;1709986;84;21179;-66
2021/03/22 02:36:34;;;;;;;28.17;15.08;;;;;;;0.74;63.53;98504.27;1710091;84;21136;-66
2021/03/22 02:39:01;;;;;;;27.65;15.45;;;;;;;0.72;63.63;98498.30;1709792;84;21318;-66
2021/03/22 02:41:38;;;;;;;25.12;14.13;;;;;;;0.75;63.55;98496.82;1709812;84;21154;-66
2021/03/22 02:44:14;;;;;;;25.15;14.87;;;;;;;0.75;63.61;98502.50;1709574;84;21287;-66
2021/03/22 02:46:41;;;;;;;30.00;17.15;;;;;;;0.79;63.50;98494.47;1709606;84;21167;-66
2021/03/22 02:49:14;;;;;;;32.90;17.82;;;;;;;0.78;63.64;98497.98;1709996;84;21219;-67
2021/03/22 02:52:18;;;;;;;30.00;17.40;;;;;;;0.84;63.54;98492.92;1709936;84;21184;-66
2021/03/22 02:54:58;;;;;;;36.48;19.17;;;;;;;0.80;63.66;98485.72;1692135;84;21195;-66
2021/03/22 02:57:51;;;;;;;34.25;18.52;;;;;;;0.84;63.60;98485.11;1710084;84;21576;-66
2021/03/22 03:00:53;;;;;;;34.08;17.17;;;;;;;0.80;63.70;98492.23;1710212;84;21647;-66
2021/03/22 03:03:21;;;;;;;31.48;17.30;;;;;;;0.84;63.68;98487.72;1709945;84;21191;-66
2021/03/22 03:05:51;;;;;;;29.15;16.32;;;;;;;0.80;63.76;98483.12;1709889;83;21321;-66
2021/03/22 03:08:22;;;;;;;29.00;16.23;;;;;;;0.83;63.71;98476.91;1709937;84;21716;-66
2021/03/22 03:10:49;;;;;;;28.60;16.55;;;;;;;0.80;63.74;98481.81;1690209;84;21175;-67
2021/03/22 03:13:16;;;;;;;30.37;16.00;;;;;;;0.86;63.70;98471.57;1709712;84;21135;-66
2021/03/22 03:15:43;;;;;;;30.55;16.73;;;;;;;0.84;63.84;98472.57;1709939;84;21151;-66
2021/03/22 03:18:11;;;;;;;31.60;16.52;;;;;;;0.87;63.84;98476.30;1709974;84;21176;-66
2021/03/22 03:20:38;;;;;;;25.08;15.45;;;;;;;0.82;63.92;98471.36;1709874;84;21159;-66
2021/03/22 03:23:05;;;;;;;26.12;15.20;;;;;;;0.83;64.04;98476.09;1710037;84;21139;-66
2021/03/22 03:25:33;;;;;;;26.95;14.85;;;;;;;0.79;64.09;98468.45;1709765;84;21159;-66
2021/03/22 03:28:01;;;;;;;28.47;16.60;;;;;;;0.81;64.10;98477.00;1709547;84;21313;-66
2021/03/22 03:30:33;;;;;;;26.15;15.72;;;;;;;0.83;64.09;98474.78;1720317;83;21158;-66
2021/03/22 03:33:00;;;;;;;28.30;16.90;;;;;;;0.82;64.16;98479.16;1723477;83;21222;-66
2021/03/22 03:35:30;;;;;;;27.62;15.53;;;;;;;0.87;64.09;98463.29;1723343;83;21123;-66
2021/03/22 03:37:57;;;;;;;28.90;16.73;;;;;;;0.85;64.18;98471.19;1723220;83;21332;-66
2021/03/22 03:40:31;;;;;;;28.47;15.45;;;;;;;0.92;64.03;98462.59;1723545;83;21171;-66
2021/03/22 03:42:59;;;;;;;31.07;17.05;;;;;;;0.89;64.06;98461.46;1723720;83;21143;-66
2021/03/22 03:45:28;;;;;;;30.70;16.27;;;;;;;0.91;64.03;98464.37;1723440;83;21166;-66
2021/03/22 03:47:57;;;;;;;26.68;15.93;;;;;;;0.88;64.22;98458.47;1721121;83;21329;-66
2021/03/22 03:50:28;;;;;;;27.15;15.25;;;;;;;0.88;64.23;98463.68;1723538;83;21222;-66
2021/03/22 03:52:57;;;;;;;27.58;15.78;;;;;;;0.87;64.28;98468.05;1723529;83;21127;-66
2021/03/22 03:55:28;;;;;;;28.52;15.88;;;;;;;0.89;64.27;98462.77;1723264;83;21147;-66
2021/03/22 03:57:55;;;;;;;24.20;15.35;;;;;;;0.86;64.35;98462.91;1723258;83;21191;-66
2021/03/22 04:00:32;;;;;;;27.60;15.83;;;;;;;0.89;64.35;98457.56;1723285;83;21191;-66
2021/03/22 04:03:21;;;;;;;28.77;16.05;;;;;;;0.89;64.30;98447.14;1723543;83;21175;-66
2021/03/22 04:06:08;;;;;;;31.07;18.50;;;;;;;0.88;64.28;98441.55;1723457;83;21651;-66
2021/03/22 04:08:43;;;;;;;29.85;16.90;;;;;;;0.89;64.25;98442.77;1723167;83;21166;-66
2021/03/22 04:11:13;;;;;;;29.95;16.65;;;;;;;0.88;64.22;98442.38;1723189;83;21163;-66
2021/03/22 04:13:41;;;;;;;28.35;16.07;;;;;;;0.89;64.17;98436.73;1723167;83;21330;-66
2021/03/22 04:16:11;;;;;;;30.00;16.07;;;;;;;0.88;64.21;98442.86;1723419;83;21571;-67
2021/03/22 04:18:39;;;;;;;24.67;15.25;;;;;;;0.91;64.19;98437.03;1723285;83;21237;-66
2021/03/22 04:21:09;;;;;;;28.20;16.23;;;;;;;0.89;64.27;98434.12;1723582;83;21151;-66
2021/03/22 04:23:36;;;;;;;29.07;15.98;;;;;;;0.93;64.11;98431.74;1723541;83;21564;-66
2021/03/22 04:26:05;;;;;;;25.35;14.78;;;;;;;0.91;64.14;98432.27;1723351;83;21175;-66
2021/03/22 04:28:32;;;;;;;30.27;16.60;;;;;;;0.93;64.17;98434.34;1723235;83;21364;-66
2021/03/22 04:31:00;;;;;;;25.15;15.55;;;;;;;0.92;64.08;98435.26;1711418;83;21219;-67
2021/03/22 04:33:27;;;;;;;26.65;14.85;;;;;;;0.94;64.12;98437.34;1709658;84;21334;-66
2021/03/22 04:35:55;;;;;;;29.07;16.40;;;;;;;0.97;64.04;98438.47;1709634;84;21207;-66
2021/03/22 04:38:22;;;;;;;28.30;15.78;;;;;;;0.97;64.02;98431.95;1709909;84;21187;-66
2021/03/22 04:40:49;;;;;;;28.17;15.98;;;;;;;1.01;63.93;98434.80;1709816;83;21333;-66
2021/03/22 04:43:17;;;;;;;31.93;16.93;;;;;;;0.99;63.95;98435.33;1709804;84;21639;-66
2021/03/22 04:45:44;;;;;;;29.77;16.65;;;;;;;1.05;63.96;98443.27;1709594;83;21167;-66
2021/03/22 04:48:13;;;;;;;30.12;17.32;;;;;;;1.03;64.05;98444.66;1709599;84;21200;-66
2021/03/22 04:50:41;;;;;;;30.55;16.95;;;;;;;1.05;63.91;98442.83;1709850;84;21329;-66
2021/03/22 04:53:09;;;;;;;29.67;17.37;;;;;;;1.04;64.00;98446.34;1710120;83;21194;-66
2021/03/22 04:55:36;;;;;;;34.70;18.73;;;;;;;1.07;63.97;98440.14;1709898;84;21155;-66
2021/03/22 04:58:03;;;;;;;35.30;17.25;;;;;;;1.06;63.99;98438.01;1710050;84;21164;-66
2021/03/22 05:00:40;;;;;;;33.98;17.92;;;;;;;1.10;63.96;98438.66;1710010;84;21155;-66
2021/03/22 05:03:10;;;;;;;31.73;17.77;;;;;;;1.11;63.90;98442.52;1709816;84;21192;-66
2021/03/22 05:05:38;;;;;;;32.48;17.90;;;;;;;1.14;63.85;98447.55;1710109;84;21688;-66
2021/03/22 05:08:07;;;;;;;36.35;18.62;;;;;;;1.18;63.77;98446.06;1710136;83;21175;-66
2021/03/22 05:10:38;;;;;;;41.80;20.60;;;;;;;1.20;63.85;98450.75;1709989;84;21195;-66
2021/03/22 05:13:06;;;;;;;49.38;21.42;;;;;;;1.28;63.69;98441.61;1709868;84;21177;-67
2021/03/22 05:15:34;;;;;;;61.08;26.73;;;;;;;1.26;63.71;98443.44;1710136;84;21536;-66
2021/03/22 05:18:02;;;;;;;60.70;25.90;;;;;;;1.32;63.71;98452.71;1710152;83;21176;-66
2021/03/22 05:20:38;;;;;;;57.03;24.90;;;;;;;1.34;63.65;98444.81;1709859;83;21321;-66
2021/03/22 05:23:18;;;;;;;44.18;22.65;;;;;;;1.43;63.49;98447.77;1780412;79;22973;-66
2021/03/22 05:25:48;;;;;;;39.58;19.95;;;;;;;1.43;63.42;98455.59;1752911;81;21182;-66
2021/03/22 05:28:15;;;;;;;34.08;17.70;;;;;;;1.47;63.36;98458.84;1723980;82;21187;-66
2021/03/22 05:30:45;;;;;;;30.48;18.23;;;;;;;1.52;63.16;98459.44;1753008;82;21183;-66
2021/03/22 05:33:15;;;;;;;35.50;19.23;;;;;;;1.53;63.07;98462.91;1752976;82;21183;-66
2021/03/22 05:35:44;;;;;;;40.33;20.75;;;;;;;1.61;62.90;98472.44;1753213;82;21297;-66
2021/03/22 05:38:11;;;;;;;37.67;19.77;;;;;;;1.61;62.83;98464.62;1723839;82;21175;-66
2021/03/22 05:40:54;;;;;;;36.90;20.10;;;;;;;1.66;62.86;98469.12;1753128;81;21655;-66
2021/03/22 05:43:50;;;;;;;;;;;;;;;1.70;62.79;98463.28;1752419;82;21310;-66
2021/03/22 05:46:40;;;;;;;40.78;21.55;;;;;;;1.71;62.64;98461.89;1723638;82;20420;-66
2021/03/22 05:49:25;;;;;;;32.33;18.70;;;;;;;1.74;62.65;98465.65;1723433;83;21269;-66
2021/03/22 05:52:17;;;;;;;35.58;20.60;;;;;;;1.75;62.63;98459.96;1723110;83;21158;-65
2021/03/22 05:55:06;;;;;;;34.10;18.20;;;;;;;1.84;62.46;98461.22;1723731;83;21163;-66
2021/03/22 05:58:06;;;;;;;39.73;18.48;;;;;;;1.86;62.30;98465.91;1723488;83;21167;-66
2021/03/22 06:01:12;;;;;;;35.10;16.90;;;;;;;1.96;62.19;98455.34;1722981;83;21155;-67
2021/03/22 06:04:00;;;;;;;31.10;17.23;;;;;;;2.01;62.19;98456.36;1722989;83;21179;-67
2021/03/22 06:06:38;;;;;;;37.53;17.52;;;;;;;2.09;61.93;98460.23;1723186;83;21115;-67
2021/03/22 06:09:35;;;;;;;35.90;18.30;;;;;;;1.83;62.06;98412.17;1723314;83;21595;-65
2021/03/22 06:12:26;;;;;;;30.77;17.87;;;;;;;2.25;62.04;98455.45;1723089;83;21343;-65
2021/03/22 06:15:04;;;;;;;24.12;14.05;;;;;;;2.32;61.96;98455.48;1722728;83;21179;-67
2021/03/22 06:17:48;;;;;;;25.62;15.05;;;;;;;2.48;61.50;98457.20;1723242;83;21155;-67
2021/03/22 06:20:27;;;;;;;23.83;13.03;;;;;;;2.58;61.09;98460.96;1723450;83;21320;-68
2021/03/22 06:23:00;;;;;;;23.67;12.68;;;;;;;2.68;60.88;98456.88;1723626;83;21214;-68
2021/03/22 06:25:35;;;;;;;22.57;12.50;;;;;;;2.83;60.69;98460.38;1724325;83;21143;-66
2021/03/22 06:28:17;;;;;;;22.85;12.65;;;;;;;2.90;60.28;98453.00;1724102;83;21860;-66
2021/03/22 06:31:05;;;;;;;19.40;12.78;;;;;;;2.99;60.00;98458.98;1723887;83;21308;-66
2021/03/22 06:33:45;;;;;;;19.02;12.13;;;;;;;3.05;59.83;98454.70;1723863;83;21163;-66
2021/03/22 06:36:22;;;;;;;24.10;13.40;;;;;;;3.16;59.78;98454.52;1723075;83;21151;-66
2021/03/22 06:38:53;;;;;;;20.92;11.90;;;;;;;3.22;59.96;98460.23;1723003;83;21211;-66
2021/03/22 06:43:51;;;;;;;21.62;11.95;;;;;;;3.41;60.09;98464.31;1817871;79;22878;-66
2021/03/22 06:46:20;;;;;;;21.07;12.37;;;;;;;3.41;59.83;98465.14;1765990;80;21257;-66
2021/03/22 06:49:06;;;;;;;22.55;13.18;;;;;;;3.43;59.72;98465.89;1757945;81;21166;-66
2021/03/22 06:51:33;;;;;;;22.30;13.98;;;;;;;3.44;59.97;98464.97;1758255;81;21127;-65
2021/03/22 06:54:01;;;;;;;20.65;12.68;;;;;;;3.50;59.95;98466.83;1758140;81;21174;-66
2021/03/22 06:56:30;;;;;;;25.50;12.98;;;;;;;3.52;60.11;98468.89;1758009;81;21158;-66
2021/03/22 06:59:12;;;;;;;21.93;14.47;;;;;;;3.57;60.21;98468.14;1758134;81;21111;-66
2021/03/22 07:01:45;;;;;;;25.57;14.78;;;;;;;3.58;60.37;98471.10;1758131;81;21159;-66
2021/03/22 07:04:31;;;;;;;20.60;12.37;;;;;;;3.61;60.43;98471.76;1758044;81;21178;-66
2021/03/22 07:07:23;;;;;;;22.77;13.48;;;;;;;3.66;60.43;98476.71;1757681;81;21182;-67
2021/03/22 07:09:57;;;;;;;26.35;15.60;;;;;;;3.58;60.94;98480.25;1757741;81;21134;-66
2021/03/22 07:12:35;;;;;;;21.42;13.48;;;;;;;3.65;61.30;98478.12;1758021;81;21253;-67
2021/03/22 07:15:31;;;;;;;21.95;13.35;;;;;;;3.71;61.55;98478.57;1754711;81;21665;-67
2021/03/22 07:18:15;;;;;;;23.65;13.88;;;;;;;3.67;62.40;98483.63;1758024;81;21146;-68
2021/03/22 07:21:04;;;;;;;22.17;13.22;;;;;;;3.63;63.02;98478.67;1757590;81;21135;-68
2021/03/22 07:24:04;;;;;;;18.85;11.70;;;;;;;3.70;63.72;98489.95;1572416;91;21265;-65
2021/03/22 07:26:58;;;;;;;20.72;12.28;;;;;;;3.72;63.96;98479.40;1611899;89;21256;-65
2021/03/22 07:29:51;;;;;;;21.77;12.15;;;;;;;3.63;64.45;98484.73;1612776;89;21232;-66
2021/03/22 07:33:10;;;;;;;18.32;12.00;;;;;;;3.87;64.32;98476.30;1780456;79;22907;-66
2021/03/22 07:35:45;;;;;;;;;;;;;;;3.84;64.31;98489.09;1755579;82;21175;-67
2021/03/22 07:38:55;;;;;;;19.73;12.80;;;;;;;3.55;64.99;98477.84;1753623;82;20173;-66
2021/03/22 07:41:45;;;;;;;19.85;13.22;;;;;;;3.36;66.01;98485.48;1753324;82;21685;-66
2021/03/22 07:44:43;;;;;;;20.32;12.37;;;;;;;3.47;66.39;98482.72;1732995;82;21135;-66
2021/03/22 07:47:28;;;;;;;18.80;12.65;;;;;;;3.59;66.41;98476.70;1723310;82;21167;-66
2021/03/22 07:50:30;;;;;;;20.35;12.15;;;;;;;3.62;66.80;98483.08;1715550;83;21293;-66
2021/03/22 07:53:18;;;;;;;18.12;11.95;;;;;;;3.89;66.92;98478.36;1723477;82;21179;-66
2021/03/22 07:55:55;;;;;;;18.65;12.53;;;;;;;3.99;66.69;98489.91;1722978;83;21158;-66
2021/03/22 07:58:49;;;;;;;20.12;12.95;;;;;;;3.99;66.35;98483.83;1723403;82;21655;-66
2021/03/22 08:01:45;;;;;;;23.02;13.30;;;;;;;3.97;66.45;98477.39;1723557;83;21300;-66
2021/03/22 08:04:43;;;;;;;18.98;11.88;;;;;;;3.96;66.69;98486.65;1723446;82;21329;-67
2021/03/22 08:07:42;;;;;;;18.82;12.40;;;;;;;3.99;66.95;98491.22;1723146;83;21187;-66
2021/03/22 08:10:30;;;;;;;19.70;12.88;;;;;;;4.28;67.14;98491.12;1723396;82;21166;-66
2021/03/22 08:13:32;;;;;;;22.52;14.90;;;;;;;4.37;66.86;98487.92;1723428;82;21152;-67
2021/03/22 08:16:38;;;;;;;22.02;14.65;;;;;;;4.36;67.04;98486.24;1723380;83;21195;-66
2021/03/22 08:19:29;;;;;;;22.02;13.28;;;;;;;4.33;67.04;98487.73;1723417;83;21163;-66
2021/03/22 08:22:39;;;;;;;20.72;12.95;;;;;;;4.27;67.17;98497.28;1651869;83;21315;-66
2021/03/22 08:25:27;;;;;;;21.37;13.62;;;;;;;4.40;67.00;98486.41;1723233;83;21162;-66
2021/03/22 08:28:00;;;;;;;22.45;13.35;;;;;;;4.58;66.88;98489.59;1723224;83;21300;-66
2021/03/22 08:30:33;;;;;;;21.73;14.35;;;;;;;4.58;66.58;98490.90;1722201;83;21135;-67
2021/03/22 08:33:14;;;;;;;21.10;13.95;;;;;;;4.55;66.61;98486.33;1710592;84;21136;-66
2021/03/22 08:35:56;;;;;;;20.95;13.72;;;;;;;4.50;66.07;98492.34;1710601;84;21168;-67
2021/03/22 08:38:56;;;;;;;17.85;12.45;;;;;;;4.36;65.64;98494.09;1710461;84;21211;-66
2021/03/22 08:41:55;;;;;;;20.37;12.90;;;;;;;4.20;65.72;98494.23;1710381;84;21188;-66
2021/03/22 08:44:33;;;;;;;22.25;13.70;;;;;;;4.24;65.52;98494.88;1709944;82;21587;-66
2021/03/22 08:47:09;;;;;;;21.60;13.88;;;;;;;4.13;65.82;98488.18;1709974;83;21664;-66
2021/03/22 08:49:56;;;;;;;21.17;14.28;;;;;;;3.94;66.11;98492.81;1709950;83;21597;-66
2021/03/22 08:52:33;;;;;;;23.38;14.95;;;;;;;3.85;66.54;98497.77;1709971;84;21171;-66
2021/03/22 08:55:16;;;;;;;22.25;14.55;;;;;;;3.82;67.08;98502.73;1710030;84;21699;-67
2021/03/22 08:58:03;;;;;;;21.17;14.25;;;;;;;4.01;66.91;98493.25;1709833;84;21616;-66
2021/03/22 09:00:40;;;;;;;21.75;15.25;;;;;;;4.06;66.95;98495.11;1710006;84;21152;-65
2021/03/22 09:03:27;;;;;;;24.85;15.75;;;;;;;4.03;67.17;98497.93;1710064;83;21167;-66
2021/03/22 09:06:18;;;;;;;24.90;16.12;;;;;;;4.02;67.31;98500.17;1697774;84;22280;-66
2021/03/22 09:08:57;;;;;;;20.60;14.15;;;;;;;4.02;67.27;98501.48;1710164;84;21309;-66
2021/03/22 09:11:31;;;;;;;22.07;14.40;;;;;;;4.17;67.69;98495.75;1709849;82;21804;-66
2021/03/22 09:14:06;;;;;;;22.07;14.83;;;;;;;4.39;67.18;98499.12;1709753;84;21346;-66
2021/03/22 09:16:47;;;;;;;23.38;15.40;;;;;;;4.41;66.83;98502.48;1710003;84;21600;-66
2021/03/22 09:19:24;;;;;;;24.92;15.80;;;;;;;4.40;66.53;98496.05;1710022;84;21628;-66
2021/03/22 09:22:04;;;;;;;21.90;14.73;;;;;;;4.37;66.53;98494.47;1709764;83;21344;-66
2021/03/22 09:24:44;;;;;;;22.05;15.28;;;;;;;4.37;66.37;98497.54;1710214;84;21140;-66
2021/03/22 09:27:20;;;;;;;23.77;14.58;;;;;;;4.37;66.63;98495.78;1709912;83;22131;-66
2021/03/22 09:29:58;;;;;;;23.07;15.58;;;;;;;4.49;66.54;98489.34;1709993;84;21789;-66
2021/03/22 09:32:32;;;;;;;23.45;15.20;;;;;;;4.74;66.02;98490.73;1720256;83;21214;-66
2021/03/22 09:35:21;;;;;;;22.13;15.03;;;;;;;4.75;66.33;98493.70;1723322;83;21163;-66
2021/03/22 09:37:54;;;;;;;21.45;14.73;;;;;;;4.68;65.12;98493.77;1723470;83;21155;-66
2021/03/22 09:40:27;;;;;;;23.38;15.72;;;;;;;4.65;65.27;98495.25;1723691;83;21135;-66
2021/03/22 09:43:12;;;;;;;25.97;16.95;;;;;;;4.70;65.98;98484.00;1723465;82;21196;-66
2021/03/22 09:45:57;;;;;;;24.12;16.62;;;;;;;4.79;65.23;98487.80;1723682;83;21175;-66
2021/03/22 09:48:37;;;;;;;24.55;15.50;;;;;;;4.85;64.82;98496.56;1723397;83;21131;-66
2021/03/22 09:51:11;;;;;;;27.00;15.58;;;;;;;4.84;63.96;98500.11;1698546;83;21202;-66
2021/03/22 09:53:55;;;;;;;21.15;14.35;;;;;;;4.74;63.99;98501.67;1723479;83;21127;-66
2021/03/22 09:56:34;;;;;;;21.95;15.18;;;;;;;4.79;64.22;98510.06;1723485;83;21265;-66
2021/03/22 09:59:29;;;;;;;22.85;15.40;;;;;;;4.85;63.96;98492.63;1723359;83;21143;-66
2021/03/22 10:01:59;;;;;;;20.60;14.10;;;;;;;4.82;64.29;98491.98;1723400;83;21449;-66
2021/03/22 10:04:35;;;;;;;22.52;15.75;;;;;;;4.73;62.77;98502.60;1723697;83;21512;-66
2021/03/22 10:07:30;;;;;;;26.68;17.73;;;;;;;4.50;63.79;98500.19;1723535;83;21175;-66
2021/03/22 10:10:01;;;;;;;23.10;15.13;;;;;;;4.47;64.85;98509.09;1723382;82;21183;-66
2021/03/22 10:12:41;;;;;;;23.18;15.63;;;;;;;4.49;64.12;98507.67;1723500;83;21167;-66
2021/03/22 10:15:23;;;;;;;20.23;13.72;;;;;;;4.35;64.22;98511.19;1723288;83;21301;-67
2021/03/22 10:18:11;;;;;;;20.35;14.07;;;;;;;4.41;63.77;98508.17;1723472;83;21171;-66
2021/03/22 10:20:43;;;;;;;20.95;15.03;;;;;;;4.54;63.48;98517.38;1723223;83;21355;-67
2021/03/22 10:23:30;;;;;;;24.32;15.45;;;;;;;4.47;63.72;98513.50;1723499;83;21182;-66
2021/03/22 10:26:29;;;;;;;23.80;14.70;;;;;;;4.34;64.23;98520.83;1723586;83;21308;-66
2021/03/22 10:29:12;;;;;;;22.58;14.87;;;;;;;4.22;64.70;98520.30;1723531;83;21555;-66
2021/03/22 10:31:40;;;;;;;23.60;15.60;;;;;;;3.95;65.89;98519.80;1719495;83;21317;-67
2021/03/22 10:34:14;;;;;;;23.18;16.10;;;;;;;3.81;66.28;98536.83;1709722;83;21171;-66
2021/03/22 10:36:41;;;;;;;25.17;16.57;;;;;;;3.77;66.36;98525.27;1709082;84;21322;-66
2021/03/22 10:39:23;;;;;;;25.05;16.77;;;;;;;3.69;66.88;98527.49;1709653;84;21155;-66
2021/03/22 10:41:50;;;;;;;25.52;16.77;;;;;;;3.58;67.23;98520.33;1709180;83;21325;-66
2021/03/22 10:44:29;;;;;;;23.12;14.53;;;;;;;3.50;67.70;98513.40;1689854;84;21592;-66
2021/03/22 10:47:07;;;;;;;22.42;13.13;;;;;;;3.47;68.23;98512.77;1709905;84;21517;-66
2021/03/22 10:49:35;;;;;;;21.30;15.18;;;;;;;3.43;68.09;98514.73;1709831;83;21204;-66
2021/03/22 10:52:05;;;;;;;19.02;13.43;;;;;;;3.57;68.06;98517.81;1709860;84;21148;-67
2021/03/22 10:54:44;;;;;;;20.30;14.78;;;;;;;3.46;67.09;98522.84;1689152;84;21303;-66
2021/03/22 10:57:25;;;;;;;22.20;14.25;;;;;;;3.37;67.47;98511.17;1709915;84;21628;-66
2021/03/22 10:59:57;;;;;;;21.65;15.35;;;;;;;3.33;67.86;98511.82;1697746;84;21143;-66
2021/03/22 11:02:29;;;;;;;21.45;15.15;;;;;;;3.18;68.04;98514.05;1709709;84;21139;-67
2021/03/22 11:04:57;;;;;;;21.65;14.50;;;;;;;3.11;68.56;98515.72;1708918;84;21655;-66
2021/03/22 11:07:25;;;;;;;23.80;15.68;;;;;;;3.17;69.00;98508.00;1709916;84;21187;-66
2021/03/22 11:10:06;;;;;;;21.45;15.03;;;;;;;3.33;68.84;98513.13;1710028;82;21163;-66
2021/03/22 11:12:33;;;;;;;20.32;14.15;;;;;;;3.27;68.97;98512.19;1709991;84;21715;-66
2021/03/22 11:15:10;;;;;;;21.17;13.58;;;;;;;3.19;69.27;98502.67;1710034;84;21155;-66
2021/03/22 11:17:38;;;;;;;22.07;16.02;;;;;;;3.09;69.34;98514.95;1709756;83;21175;-66
2021/03/22 11:20:08;;;;;;;21.42;13.88;;;;;;;2.93;69.14;98508.51;1709707;83;21179;-67
2021/03/22 11:22:47;;;;;;;17.85;11.93;;;;;;;2.82;69.70;98502.24;1709996;84;21159;-66
2021/03/22 11:25:35;;;;;;;22.65;14.85;;;;;;;2.86;69.84;98509.79;1709939;84;21270;-66
2021/03/22 11:28:19;;;;;;;20.75;15.18;;;;;;;2.98;69.19;98513.92;1709759;84;21219;-66
2021/03/22 11:30:53;;;;;;;;;;;;;;;2.89;69.55;98508.77;1712429;84;21183;-66
2021/03/22 11:33:32;;;;;;;23.22;16.60;;;;;;;2.85;69.54;98505.97;1709910;83;20145;-66
2021/03/22 11:36:17;;;;;;;21.50;14.30;;;;;;;2.73;69.66;98512.28;1710011;84;21270;-66
2021/03/22 11:39:19;;;;;;;19.70;14.13;;;;;;;2.74;70.15;98517.88;1709894;84;21620;-66
2021/03/22 11:41:58;;;;;;;24.98;16.12;;;;;;;2.95;69.42;98513.64;1709767;82;21544;-66
2021/03/22 11:44:38;;;;;;;23.30;16.27;;;;;;;3.11;69.04;98515.72;1709649;82;21333;-66
2021/03/22 11:47:38;;;;;;;23.00;15.60;;;;;;;3.06;68.98;98528.21;1709829;83;21132;-66
2021/03/22 11:50:35;;;;;;;24.70;16.97;;;;;;;3.03;69.19;98523.19;1709639;84;21179;-66
2021/03/22 11:53:19;;;;;;;24.37;15.95;;;;;;;2.99;68.74;98517.74;1707775;84;21591;-68
2021/03/22 11:55:58;;;;;;;21.25;14.28;;;;;;;2.91;68.65;98516.89;1709684;84;21278;-67
2021/03/22 11:58:37;;;;;;;27.05;16.00;;;;;;;3.04;68.49;98520.92;1703550;84;21297;-67
2021/03/22 12:01:25;;;;;;;26.95;17.02;;;;;;;3.08;67.86;98522.89;1709877;83;21135;-67
2021/03/22 12:04:09;;;;;;;24.50;15.83;;;;;;;2.96;67.95;98529.69;1708928;84;21176;-68
2021/03/22 12:07:01;;;;;;;20.75;14.28;;;;;;;2.86;67.43;98516.32;1709794;84;21159;-69
2021/03/22 12:09:30;;;;;;;22.27;14.68;;;;;;;2.76;66.90;98516.03;1709600;82;21330;-67
2021/03/22 12:12:01;;;;;;;20.30;15.05;;;;;;;2.67;66.91;98520.94;1709803;83;21155;-66
2021/03/22 12:14:29;;;;;;;22.75;14.60;;;;;;;2.71;66.96;98525.91;1709658;83;21312;-66
2021/03/22 12:17:07;;;;;;;24.95;15.98;;;;;;;2.71;66.82;98517.21;1709888;84;21128;-66